Time;durP1;ratioP1;P1;durP2;ratioP2;P2;SDS_P1;SDS_P2;PMS_P1;PMS_P2;Temp;Humidity;BMP_temperature;BMP_pressure;BME280_temperature;BME280_humidity;BME280_pressure;Samples;Min_cycle;Max_cycle;Signal;HPM_P1;HPM_P2
2022/04/14 00:01:48;;;;;;;9.97;7.00;;;9.40;61.10;;;9.41;47.62;95318.31;5055183;28;20450;-55
2022/04/14 00:04:15;;;;;;;11.10;6.73;;;9.40;60.70;;;9.38;48.58;95315.09;5054864;28;20447;-56
2022/04/14 00:06:43;;;;;;;14.80;7.37;;;9.30;61.80;;;9.33;47.78;95318.91;5056561;28;20863;-55
2022/04/14 00:09:10;;;;;;;12.10;6.93;;;9.30;61.00;;;9.29;47.72;95314.84;5057052;28;20455;-56
2022/04/14 00:11:38;;;;;;;8.53;6.53;;;9.30;61.30;;;9.27;47.52;95318.56;5051972;28;20479;-57
2022/04/14 00:14:06;;;;;;;16.43;7.13;;;9.20;60.80;;;9.23;48.42;95307.47;5057945;28;20546;-56
2022/04/14 00:16:33;;;;;;;24.03;7.00;;;9.20;62.00;;;9.21;48.40;95311.19;5050993;28;20479;-56
2022/04/14 00:19:02;;;;;;;10.90;7.20;;;9.10;61.80;;;9.17;48.25;95307.97;5057562;28;20839;-57
2022/04/14 00:21:29;;;;;;;14.30;6.23;;;9.10;61.80;;;9.13;48.31;95307.34;5053309;28;20467;-56
2022/04/14 00:23:56;;;;;;;12.70;6.80;;;9.10;61.70;;;9.10;48.50;95306.78;5056259;28;20951;-57
2022/04/14 00:26:24;;;;;;;11.83;6.20;;;9.10;62.30;;;9.09;48.94;95310.34;5056319;28;20490;-54
2022/04/14 00:28:51;;;;;;;10.83;5.07;;;9.00;62.90;;;9.05;48.89;95307.13;5056669;28;20470;-58
2022/04/14 00:31:18;;;;;;;7.63;4.90;;;9.00;63.40;;;9.03;48.90;95310.81;5053995;28;20471;-53
2022/04/14 00:33:46;;;;;;;18.33;5.40;;;9.00;62.90;;;9.00;48.51;95313.69;5052399;28;20459;-54
2022/04/14 00:36:15;;;;;;;10.30;5.77;;;9.00;63.30;;;8.95;48.78;95311.41;5054230;28;20478;-54
2022/04/14 00:38:42;;;;;;;9.97;5.37;;;8.90;63.60;;;8.90;48.54;95316.19;5056829;28;20824;-56
2022/04/14 00:41:09;;;;;;;15.37;5.37;;;8.90;62.60;;;8.83;48.35;95309.72;5059456;28;20844;-56
2022/04/14 00:43:38;;;;;;;12.07;5.10;;;8.80;62.10;;;8.78;48.64;95323.19;5056979;28;20459;-56
2022/04/14 00:46:06;;;;;;;12.57;5.60;;;8.80;62.70;;;8.74;48.77;95327.84;5060195;28;20499;-55
2022/04/14 00:48:34;;;;;;;5.83;5.33;;;8.70;62.60;;;8.73;48.96;95320.09;5051062;28;20575;-61
2022/04/14 00:51:03;;;;;;;8.90;4.80;;;8.70;62.60;;;8.69;48.82;95318.66;5050653;28;20863;-55
2022/04/14 00:53:31;;;;;;;8.50;5.20;;;8.70;63.10;;;8.66;48.57;95324.13;5049309;28;20491;-56
2022/04/14 00:55:59;;;;;;;7.87;4.47;;;8.60;63.30;;;8.63;49.28;95321.75;5053630;28;20729;-56
2022/04/14 00:58:26;;;;;;;7.50;5.00;;;8.60;64.30;;;8.60;49.05;95322.84;5058856;28;20454;-54
2022/04/14 01:00:53;;;;;;;10.00;5.30;;;8.60;64.40;;;8.58;48.89;95329.97;5058166;28;20506;-55
2022/04/14 01:03:21;;;;;;;5.20;4.70;;;8.50;64.00;;;8.56;49.30;95324.00;5057800;28;20832;-54
2022/04/14 01:05:48;;;;;;;10.13;4.87;;;8.50;64.60;;;8.55;48.81;95323.19;5060183;28;20526;-54
2022/04/14 01:08:17;;;;;;;14.83;4.80;;;8.50;64.30;;;8.52;49.53;95328.66;5053606;28;20460;-56
2022/04/14 01:10:48;;;;;;;5.17;4.70;;;8.50;65.00;;;8.51;49.43;95326.16;5061402;28;20499;-55
2022/04/14 01:13:16;;;;;;;5.33;4.83;;;8.50;64.80;;;8.50;49.60;95325.31;5053931;28;20443;-54
2022/04/14 01:15:44;;;;;;;5.77;5.27;;;8.50;65.10;;;8.49;50.12;95320.16;5055051;28;20475;-55
2022/04/14 01:18:11;;;;;;;12.40;5.03;;;8.50;65.70;;;8.48;50.26;95331.63;5057734;28;20836;-53
2022/04/14 01:20:39;;;;;;;8.93;5.17;;;8.40;66.20;;;8.43;50.13;95330.19;5060185;28;20472;-56
2022/04/14 01:23:07;;;;;;;6.73;5.57;;;8.40;66.00;;;8.41;49.97;95332.06;5056090;28;20459;-55
2022/04/14 01:25:35;;;;;;;11.50;5.83;;;8.40;66.50;;;8.38;50.62;95337.53;5056361;28;20472;-55
2022/04/14 01:28:03;;;;;;;8.40;5.50;;;8.30;66.90;;;8.29;49.07;95332.13;5057137;28;20478;-55
2022/04/14 01:30:30;;;;;;;20.83;7.77;;;8.30;65.40;;;8.18;49.60;95335.53;5055950;28;20958;-54
2022/04/14 01:32:58;;;;;;;14.13;7.63;;;8.20;64.70;;;8.05;50.14;95340.84;5055215;28;20481;-55
2022/04/14 01:35:25;;;;;;;21.73;10.50;;;8.10;66.30;;;7.96;50.29;95328.44;5059910;28;20476;-55
2022/04/14 01:37:53;;;;;;;24.80;10.87;;;8.00;67.00;;;7.91;50.04;95336.63;5055912;28;20463;-55
2022/04/14 01:40:20;;;;;;;27.17;11.87;;;7.90;66.80;;;7.87;50.29;95336.03;5054623;28;20472;-56
2022/04/14 01:42:49;;;;;;;21.63;9.90;;;7.90;66.90;;;7.81;51.44;95333.84;5058024;28;20448;-55
2022/04/14 01:45:16;;;;;;;28.20;11.47;;;7.80;68.20;;;7.78;51.19;95331.44;5059001;28;20481;-56
2022/04/14 01:47:45;;;;;;;18.13;9.53;;;7.80;68.40;;;7.76;50.96;95335.13;5052932;28;20495;-56
2022/04/14 01:50:14;;;;;;;25.03;10.93;;;7.80;68.50;;;7.75;51.28;95341.31;5052554;28;20503;-55
2022/04/14 01:52:42;;;;;;;29.70;11.37;;;7.70;68.80;;;7.75;51.41;95339.53;5051292;28;20980;-56
2022/04/14 01:55:10;;;;;;;32.43;12.13;;;7.70;68.90;;;7.76;51.47;95340.34;5056315;28;20467;-55
2022/04/14 01:57:37;;;;;;;22.43;10.00;;;7.70;69.40;;;7.76;51.35;95341.22;5058619;28;20466;-54
2022/04/14 02:00:08;;;;;;;19.17;10.83;;;7.70;69.50;;;7.76;51.76;95341.22;5056051;28;20971;-55
2022/04/14 02:02:35;;;;;;;29.83;10.57;;;7.70;70.10;;;7.76;51.25;95350.81;5059161;28;20959;-55
2022/04/14 02:05:03;;;;;;;18.20;7.93;;;7.80;70.20;;;7.75;50.94;95346.56;5052716;28;20753;-56
2022/04/14 02:07:30;;;;;;;8.83;5.23;;;7.70;69.90;;;7.77;50.44;95353.34;5050880;28;20525;-55
2022/04/14 02:09:58;;;;;;;13.93;5.43;;;7.70;68.40;;;7.77;49.96;95347.28;5051718;28;20868;-54
2022/04/14 02:12:25;;;;;;;11.63;5.90;;;7.80;67.80;;;7.78;50.23;95354.19;5055272;28;20482;-56
2022/04/14 02:14:53;;;;;;;8.10;4.63;;;7.80;67.80;;;7.76;49.59;95341.22;5059236;28;20701;-55
2022/04/14 02:17:22;;;;;;;7.03;5.10;;;7.80;66.80;;;7.75;49.92;95343.94;5058376;28;20806;-55
2022/04/14 02:19:49;;;;;;;10.20;6.27;;;7.70;66.70;;;7.74;49.96;95343.09;5057373;28;20462;-56
2022/04/14 02:22:18;;;;;;;10.43;4.63;;;7.70;66.70;;;7.72;49.61;95339.75;5057283;28;21006;-54
2022/04/14 02:24:45;;;;;;;7.33;5.07;;;7.70;66.10;;;7.67;49.19;95336.63;5057007;28;20531;-54
2022/04/14 02:27:13;;;;;;;7.10;4.87;;;7.70;65.60;;;7.62;49.36;95338.72;5057358;28;20909;-56
2022/04/14 02:29:40;;;;;;;5.63;4.30;;;7.60;65.20;;;7.56;48.92;95340.03;5053649;28;20463;-54
2022/04/14 02:32:08;;;;;;;5.90;4.00;;;7.60;64.80;;;7.50;48.92;95335.22;5054068;28;20785;-54
2022/04/14 02:34:37;;;;;;;11.83;4.90;;;7.60;65.10;;;7.46;49.90;95339.81;5055694;28;20478;-54
2022/04/14 02:37:05;;;;;;;6.80;4.80;;;7.50;65.40;;;7.43;49.65;95342.66;5058410;28;20455;-56
2022/04/14 02:39:32;;;;;;;6.80;5.33;;;7.50;65.80;;;7.42;49.77;95346.25;5056009;28;20943;-54
2022/04/14 02:41:59;;;;;;;8.07;4.63;;;7.50;66.00;;;7.43;50.17;95345.28;5058615;28;20455;-56
2022/04/14 02:44:27;;;;;;;5.47;4.50;;;7.50;66.30;;;7.45;49.70;95343.41;5051725;28;20464;-56
2022/04/14 02:46:54;;;;;;;5.20;4.27;;;7.50;66.60;;;7.45;49.80;95348.63;5051274;28;20892;-56
2022/04/14 02:49:23;;;;;;;4.87;3.60;;;7.50;66.60;;;7.45;49.74;95351.25;5052084;28;20455;-54
2022/04/14 02:51:51;;;;;;;7.20;4.87;;;7.50;66.30;;;7.46;49.97;95354.69;5057385;28;20531;-56
2022/04/14 02:54:19;;;;;;;11.30;4.50;;;7.50;66.40;;;7.45;49.46;95359.09;5057391;28;20462;-54
2022/04/14 02:56:46;;;;;;;5.70;5.10;;;7.50;66.30;;;7.47;49.77;95365.06;5055344;28;20813;-57
2022/04/14 02:59:13;;;;;;;10.37;4.17;;;7.50;65.80;;;7.46;49.82;95355.53;5058361;28;20466;-57
2022/04/14 03:01:40;;;;;;;6.97;4.87;;;7.50;66.30;;;7.47;49.96;95356.38;5050995;28;20999;-54
2022/04/14 03:04:08;;;;;;;11.30;4.90;;;7.50;66.00;;;7.48;49.75;95345.81;5050714;28;20468;-56
2022/04/14 03:06:35;;;;;;;13.43;4.83;;;7.50;66.40;;;7.48;50.22;95343.19;5049604;28;21038;-56
2022/04/14 03:09:03;;;;;;;6.97;4.60;;;7.50;67.20;;;7.45;49.57;95351.25;5053034;28;20504;-56
2022/04/14 03:11:31;;;;;;;5.67;4.57;;;7.50;66.30;;;7.40;49.51;95347.28;5060383;28;20528;-54
2022/04/14 03:13:58;;;;;;;8.73;5.47;;;7.40;66.30;;;7.36;49.68;95354.53;5057675;28;20500;-54
2022/04/14 03:16:26;;;;;;;8.23;5.90;;;7.40;66.80;;;7.31;49.45;95354.00;5054604;28;20468;-55
2022/04/14 03:18:53;;;;;;;8.27;5.30;;;7.30;66.10;;;7.25;49.82;95352.66;5054205;28;20522;-60
2022/04/14 03:21:20;;;;;;;11.23;6.30;;;7.30;66.80;;;7.24;50.46;95352.78;5049755;28;20475;-57
2022/04/14 03:23:48;;;;;;;9.10;5.33;;;7.30;67.70;;;7.22;50.73;95365.09;5051149;28;20999;-55
2022/04/14 03:26:16;;;;;;;9.73;5.03;;;7.20;67.60;;;7.19;50.58;95360.94;5050454;28;20491;-57
2022/04/14 03:28:44;;;;;;;12.87;5.63;;;7.20;67.40;;;7.18;49.94;95362.69;5057829;28;20452;-54
2022/04/14 03:31:11;;;;;;;6.93;5.37;;;7.20;67.60;;;7.16;50.84;95361.97;5055037;28;20475;-57
2022/04/14 03:33:39;;;;;;;20.13;6.63;;;7.20;67.60;;;7.17;49.94;95357.56;5058134;28;20455;-57
2022/04/14 03:36:07;;;;;;;15.23;6.60;;;7.20;67.60;;;7.16;50.20;95355.91;5057241;28;20531;-57
2022/04/14 03:38:34;;;;;;;17.97;6.97;;;7.20;67.60;;;7.14;50.55;95366.50;5050723;28;20459;-55
2022/04/14 03:41:04;;;;;;;13.60;8.80;;;7.20;68.60;;;7.12;51.08;95372.75;5053087;28;20479;-56
2022/04/14 03:43:33;;;;;;;9.70;6.80;;;7.10;68.20;;;7.10;50.56;95362.41;5051662;28;20454;-56
2022/04/14 03:46:00;;;;;;;15.83;6.80;;;7.10;69.00;;;7.08;51.19;95369.53;5053553;28;21060;-57
2022/04/14 03:48:27;;;;;;;12.80;6.17;;;7.10;68.90;;;7.07;51.07;95375.69;5054678;28;20495;-55
2022/04/14 03:50:55;;;;;;;12.10;6.47;;;7.10;69.30;;;7.05;50.98;95374.97;5055991;28;20475;-56
2022/04/14 03:53:22;;;;;;;8.80;6.47;;;7.10;69.40;;;7.04;51.60;95368.06;5056467;28;20879;-54
2022/04/14 03:55:50;;;;;;;10.77;6.60;;;7.10;69.70;;;7.03;51.37;95373.41;5053943;28;20475;-54
2022/04/14 03:58:17;;;;;;;18.13;6.63;;;7.00;69.60;;;7.00;51.68;95372.69;5056521;28;20521;-57
2022/04/14 04:00:46;;;;;;;16.43;7.80;;;7.00;69.90;;;7.01;51.04;95381.34;5057283;28;21037;-54
2022/04/14 04:03:13;;;;;;;16.73;5.97;;;7.00;69.50;;;7.00;51.19;95379.66;5051301;28;20451;-55
2022/04/14 04:05:41;;;;;;;20.50;7.47;;;7.00;69.50;;;7.01;51.30;95386.56;5060577;28;20482;-56
2022/04/14 04:08:08;;;;;;;14.63;7.57;;;7.00;70.10;;;7.00;51.28;95377.91;5059422;28;20511;-57
2022/04/14 04:10:36;;;;;;;14.83;8.27;;;7.00;69.90;;;7.00;51.74;95383.13;5058207;28;20479;-57
2022/04/14 04:13:03;;;;;;;13.93;9.63;;;7.00;69.70;;;6.99;52.00;95383.25;5063087;28;20963;-56
2022/04/14 04:15:30;;;;;;;22.27;7.97;;;7.00;70.40;;;6.98;51.18;95376.31;5053800;28;20579;-54
2022/04/14 04:17:59;;;;;;;25.73;9.07;;;7.00;70.20;;;6.98;51.41;95381.56;5057071;28;20455;-56
2022/04/14 04:20:26;;;;;;;30.30;9.30;;;7.00;70.00;;;6.96;51.72;95384.28;5048059;28;20471;-58
2022/04/14 04:22:53;;;;;;;24.43;9.07;;;7.00;70.10;;;6.97;51.58;95378.13;5054464;28;20451;-55
2022/04/14 04:25:21;;;;;;;22.83;8.87;;;7.00;70.00;;;6.97;51.82;95387.72;5062154;28;20475;-56
2022/04/14 04:27:48;;;;;;;22.80;9.07;;;7.00;70.50;;;6.98;51.24;95399.88;5059215;28;20516;-59
2022/04/14 04:30:15;;;;;;;17.30;8.73;;;7.00;70.30;;;7.00;51.47;95392.75;5059197;28;21010;-56
2022/04/14 04:32:42;;;;;;;20.77;8.43;;;7.00;70.30;;;6.99;51.73;95396.31;5060384;28;20463;-55
2022/04/14 04:35:12;;;;;;;18.53;9.33;;;7.00;70.60;;;7.04;51.35;95406.47;5053988;28;20479;-58
2022/04/14 04:37:41;;;;;;;20.83;9.20;;;7.00;70.50;;;7.08;51.41;95411.38;5063272;28;20542;-56
2022/04/14 04:40:09;;;;;;;21.87;9.30;;;7.10;70.70;;;7.14;51.54;95407.50;5052394;28;20475;-58
2022/04/14 04:42:36;;;;;;;27.13;8.93;;;7.10;70.00;;;7.20;51.51;95416.69;5056137;28;20462;-57
2022/04/14 04:45:04;;;;;;;30.27;10.73;;;7.20;71.10;;;7.31;52.56;95415.03;5054677;28;20463;-57
2022/04/14 04:47:32;;;;;;;26.67;10.73;;;7.30;72.80;;;7.45;51.75;95419.31;5057263;28;20584;-57
2022/04/14 04:50:00;;;;;;;27.20;11.17;;;7.40;71.80;;;7.54;51.17;95421.28;5060941;28;20480;-58
2022/04/14 04:52:29;;;;;;;23.77;10.67;;;7.50;70.90;;;7.61;50.83;95426.09;5060147;28;20899;-56
2022/04/14 04:54:56;;;;;;;23.93;10.40;;;7.60;70.10;;;7.65;51.17;95424.91;5057629;28;20998;-56
2022/04/14 04:57:23;;;;;;;39.53;9.27;;;7.60;69.70;;;7.70;50.64;95433.28;5051071;28;20893;-57
2022/04/14 04:59:50;;;;;;;27.60;11.20;;;7.70;69.50;;;7.72;51.02;95440.06;5051618;28;20471;-57
2022/04/14 05:02:17;;;;;;;29.30;10.23;;;7.70;69.40;;;7.76;50.86;95445.09;5053818;28;20971;-54
2022/04/14 05:04:45;;;;;;;21.57;9.73;;;7.70;68.90;;;7.79;50.39;95450.97;5056308;28;20483;-56
2022/04/14 05:07:12;;;;;;;35.97;8.20;;;7.80;69.60;;;7.82;51.21;95450.75;5058648;28;20511;-57
2022/04/14 05:09:41;;;;;;;12.03;7.07;;;7.80;69.70;;;7.86;50.65;95449.56;5059396;28;20873;-58
2022/04/14 05:12:11;;;;;;;14.43;7.60;;;7.80;69.30;;;7.89;50.17;95451.16;5056516;28;20543;-57
2022/04/14 05:14:38;;;;;;;30.53;7.30;;;7.90;68.70;;;7.96;50.71;95451.53;5053545;28;20537;-56
2022/04/14 05:17:06;;;;;;;19.03;7.30;;;7.90;69.20;;;8.03;49.82;95458.03;5057685;28;20454;-55
2022/04/14 05:19:33;;;;;;;13.70;7.63;;;8.00;68.40;;;8.11;50.06;95467.94;5052826;28;20451;-54
2022/04/14 05:22:02;;;;;;;29.80;8.57;;;8.00;68.40;;;8.19;50.01;95463.81;5056538;28;20532;-56
2022/04/14 05:24:30;;;;;;;16.30;7.17;;;8.10;68.50;;;8.28;49.80;95456.25;5060368;28;20479;-55
2022/04/14 05:26:59;;;;;;;14.97;6.67;;;8.20;68.60;;;8.39;49.74;95456.31;5058275;28;20578;-56
2022/04/14 05:29:26;;;;;;;9.80;5.83;;;8.30;68.70;;;8.48;49.51;95455.66;5059953;28;20510;-56
2022/04/14 05:31:54;;;;;;;13.27;7.70;;;8.40;67.90;;;8.60;49.74;95462.63;5052586;28;20447;-55
2022/04/14 05:34:21;;;;;;;12.40;8.50;;;8.50;68.60;;;8.75;49.82;95471.16;5053858;28;20456;-54
2022/04/14 05:36:48;;;;;;;10.47;8.43;;;8.60;68.00;;;8.95;49.32;95463.56;5049914;28;20455;-56
2022/04/14 05:39:16;;;;;;;12.77;7.90;;;8.80;67.90;;;9.14;48.88;95469.13;5055289;28;20511;-55
2022/04/14 05:41:43;;;;;;;11.27;7.30;;;8.90;66.70;;;9.40;48.25;95465.44;5056868;28;20458;-56
2022/04/14 05:44:11;;;;;;;12.27;8.00;;;9.20;65.90;;;9.63;48.78;95477.63;5059196;28;20474;-57
2022/04/14 05:46:39;;;;;;;12.87;7.30;;;9.40;66.10;;;9.90;47.82;95473.81;5056909;28;20470;-55
2022/04/14 05:49:06;;;;;;;13.87;8.70;;;9.60;64.90;;;10.18;47.19;95472.47;5061378;28;20491;-56
2022/04/14 05:51:33;;;;;;;46.57;8.67;;;9.90;63.80;;;10.48;47.44;95472.78;5052419;28;20483;-55
2022/04/14 05:54:01;;;;;;;16.57;6.53;;;10.20;62.90;;;10.77;47.24;95475.66;5065828;28;20451;-55
2022/04/14 05:56:28;;;;;;;11.83;7.30;;;10.50;63.30;;;11.05;46.66;95476.03;5055615;28;21081;-56
2022/04/14 05:58:55;;;;;;;13.17;7.10;;;10.70;62.10;;;11.33;45.80;95474.53;5056135;28;20459;-56
2022/04/14 06:01:25;;;;;;;16.03;6.50;;;11.00;60.50;;;11.60;45.74;95481.06;5054426;28;20480;-55
2022/04/14 06:03:52;;;;;;;9.47;6.63;;;11.30;60.10;;;11.86;45.34;95475.34;5058407;28;20477;-56
2022/04/14 06:06:19;;;;;;;13.40;8.07;;;11.50;59.10;;;12.13;45.09;95469.50;5057893;28;20982;-58
2022/04/14 06:08:47;;;;;;;16.40;7.97;;;11.80;59.10;;;12.37;44.38;95474.44;5059759;28;20558;-57
2022/04/14 06:11:14;;;;;;;8.17;5.70;;;12.00;58.20;;;12.63;44.13;95473.91;5054978;28;20866;-54
2022/04/14 06:13:41;;;;;;;21.80;7.13;;;12.20;57.50;;;12.86;43.78;95483.22;5051940;28;20455;-56
2022/04/14 06:16:09;;;;;;;12.87;6.93;;;12.50;57.00;;;13.09;43.25;95475.03;5051349;28;20491;-55
2022/04/14 06:18:37;;;;;;;11.67;6.40;;;12.70;56.70;;;13.29;42.76;95470.53;5057075;28;20462;-56
2022/04/14 06:21:05;;;;;;;8.80;6.40;;;12.90;55.10;;;13.55;42.11;95484.00;5055011;28;20668;-57
2022/04/14 06:23:32;;;;;;;7.90;6.43;;;13.20;54.30;;;13.76;41.66;95475.06;5058075;28;20469;-56
2022/04/14 06:25:59;;;;;;;12.73;6.50;;;13.40;53.60;;;13.97;41.51;95475.69;5062230;28;20521;-55
2022/04/14 06:28:27;;;;;;;10.03;6.33;;;13.60;53.30;;;14.19;40.91;95478.91;5054311;28;20897;-54
2022/04/14 06:30:54;;;;;;;11.30;7.57;;;13.80;52.30;;;14.45;40.77;95486.16;5051158;28;20467;-56
2022/04/14 06:33:22;;;;;;;10.97;6.07;;;14.00;52.10;;;14.67;40.36;95472.53;5052646;28;20447;-56
2022/04/14 06:35:51;;;;;;;14.03;8.30;;;14.30;51.70;;;14.90;39.90;95485.31;5056699;28;20483;-54
2022/04/14 06:38:19;;;;;;;13.90;6.33;;;14.50;51.20;;;15.11;39.08;95485.00;5057473;28;21019;-54
2022/04/14 06:40:47;;;;;;;10.90;7.30;;;14.70;49.90;;;15.20;38.67;95477.97;5057164;28;20474;-57
2022/04/14 06:43:14;;;;;;;12.50;6.50;;;14.90;49.10;;;15.25;38.29;95475.69;5056628;28;20455;-55
2022/04/14 06:45:41;;;;;;;6.70;6.00;;;14.90;48.10;;;15.32;38.11;95474.09;5058547;28;20478;-54
2022/04/14 06:48:09;;;;;;;11.27;6.47;;;15.00;48.40;;;15.48;38.46;95476.03;5050836;28;20835;-57
2022/04/14 06:50:37;;;;;;;10.90;5.70;;;15.10;48.70;;;15.73;37.89;95478.84;5053006;28;21096;-56
2022/04/14 06:53:05;;;;;;;12.20;6.97;;;15.30;48.00;;;16.00;37.18;95490.28;5050316;28;20463;-55
2022/04/14 06:55:35;;;;;;;12.77;8.27;;;15.50;47.20;;;16.17;37.26;95480.56;5055234;28;20475;-56
2022/04/14 06:58:02;;;;;;;27.63;8.30;;;15.80;47.20;;;16.41;37.17;95487.81;5059820;28;20456;-57
2022/04/14 07:00:30;;;;;;;20.03;7.70;;;16.00;47.40;;;16.68;36.27;95489.38;5055284;28;20478;-55
2022/04/14 07:02:58;;;;;;;15.60;7.20;;;16.20;46.00;;;16.96;36.03;95486.47;5058149;28;20471;-56
2022/04/14 07:05:26;;;;;;;9.10;6.40;;;16.50;46.20;;;17.14;35.90;95492.47;5060186;28;20477;-55
2022/04/14 07:07:53;;;;;;;11.83;6.87;;;16.70;45.70;;;17.35;35.16;95488.47;5056390;28;20605;-55
2022/04/14 07:10:22;;;;;;;17.27;6.63;;;16.90;44.60;;;17.42;34.67;95492.16;5050823;28;20480;-55
2022/04/14 07:12:49;;;;;;;8.70;6.27;;;17.00;44.10;;;17.60;34.98;95497.31;5054295;28;20881;-53
2022/04/14 07:15:16;;;;;;;18.50;6.40;;;17.10;44.10;;;17.85;34.29;95487.44;5053424;28;20480;-55
2022/04/14 07:17:44;;;;;;;9.73;6.87;;;17.40;43.70;;;18.14;34.46;95495.88;5056445;28;20447;-56
2022/04/14 07:20:11;;;;;;;18.17;6.90;;;17.70;44.10;;;18.47;34.20;95491.28;5057483;28;20479;-56
2022/04/14 07:22:45;;;;;;;13.73;6.87;;;17.90;43.40;;;18.72;33.43;95485.81;5053797;28;20456;-54
2022/04/14 07:25:12;;;;;;;13.87;6.50;;;18.30;42.20;;;18.83;33.60;95492.59;5057266;28;20851;-56
2022/04/14 07:27:41;;;;;;;9.63;6.60;;;18.40;42.30;;;18.94;33.20;95485.03;5050371;28;20498;-54
2022/04/14 07:30:09;;;;;;;16.40;7.07;;;18.50;41.80;;;19.11;33.47;95466.25;5050474;28;20467;-57
2022/04/14 07:32:36;;;;;;;18.83;7.87;;;18.70;42.50;;;19.48;32.65;95472.63;5050524;28;20451;-57
2022/04/14 07:35:04;;;;;;;14.10;6.80;;;18.90;41.80;;;19.78;32.40;95476.19;5051116;28;20471;-56
2022/04/14 07:37:32;;;;;;;22.27;8.50;;;19.30;41.10;;;19.95;31.78;95468.84;5054541;28;20455;-56
2022/04/14 07:39:59;;;;;;;12.00;7.50;;;19.50;39.70;;;20.15;31.32;95471.00;5054851;28;20511;-57
2022/04/14 07:42:32;;;;;;;16.33;7.87;;;19.70;40.40;;;20.44;30.87;95466.66;5051628;28;20762;-56
2022/04/14 07:45:01;;;;;;;13.13;7.50;;;20.00;39.80;;;20.74;31.32;95467.44;5057899;28;20482;-54
2022/04/14 07:47:28;;;;;;;14.60;8.53;;;20.20;40.30;;;21.15;30.78;95464.19;5043936;28;20459;-56
2022/04/14 07:49:55;;;;;;;23.93;9.40;;;20.60;39.40;;;21.37;30.34;95459.63;5051337;28;20471;-56
2022/04/14 07:52:23;;;;;;;20.80;9.43;;;20.80;38.60;;;21.62;30.08;95464.59;5057650;28;20538;-56
2022/04/14 07:54:50;;;;;;;18.53;8.00;;;21.10;38.80;;;21.87;28.85;95461.50;5054673;28;20481;-55
2022/04/14 07:57:17;;;;;;;18.50;8.00;;;21.30;36.90;;;22.08;29.64;95463.28;5054721;28;20462;-56
2022/04/14 07:59:45;;;;;;;25.40;8.20;;;21.50;38.10;;;22.49;29.25;95459.81;5057314;28;20475;-56
2022/04/14 08:02:13;;;;;;;11.63;8.40;;;21.90;37.90;;;22.98;28.18;95455.22;5052110;28;20458;-56
2022/04/14 08:04:41;;;;;;;12.67;8.17;;;22.50;36.90;;;23.39;28.29;95447.06;5050322;28;20479;-56
2022/04/14 08:07:08;;;;;;;13.43;7.60;;;23.00;37.00;;;23.87;27.89;95461.31;5050022;28;20439;-56
2022/04/14 08:09:35;;;;;;;25.93;7.33;;;23.50;36.00;;;24.29;27.37;95460.00;5049763;28;20490;-55
2022/04/14 08:12:03;;;;;;;15.30;7.73;;;23.90;35.40;;;24.74;27.63;95455.72;5049444;28;20448;-56
2022/04/14 08:14:30;;;;;;;24.27;7.80;;;24.40;35.70;;;25.20;26.65;95446.56;5057898;28;20962;-56
2022/04/14 08:17:03;;;;;;;11.00;7.33;;;24.80;34.70;;;25.56;25.48;95450.47;5054852;28;20512;-55
2022/04/14 08:19:34;;;;;;;10.93;7.40;;;25.30;33.50;;;25.75;26.06;95446.00;5058972;28;20795;-57
2022/04/14 08:22:01;;;;;;;12.00;7.47;;;25.60;33.60;;;25.99;25.90;95440.81;5053896;28;20443;-54
2022/04/14 08:24:29;;;;;;;14.60;7.30;;;25.90;33.30;;;26.28;25.47;95450.06;5051125;28;20500;-56
2022/04/14 08:26:56;;;;;;;13.77;7.97;;;26.20;32.60;;;26.55;24.10;95442.47;5047543;28;20531;-54
2022/04/14 08:29:23;;;;;;;16.37;7.07;;;26.60;31.30;;;26.64;24.79;95443.00;5053770;28;20740;-54
2022/04/14 08:31:50;;;;;;;22.63;8.23;;;26.80;31.40;;;26.75;24.40;95444.13;5056837;28;20455;-56
2022/04/14 08:34:18;;;;;;;12.03;6.60;;;26.90;30.80;;;26.82;24.15;95451.09;5054568;28;20450;-56
2022/04/14 08:36:47;;;;;;;10.17;7.07;;;27.00;30.30;;;26.86;23.98;95446.06;5056876;28;20518;-56
2022/04/14 08:39:15;;;;;;;8.57;5.80;;;27.00;30.80;;;26.92;23.99;95444.34;5058217;28;20451;-56
2022/04/14 08:41:42;;;;;;;9.90;6.30;;;26.90;30.10;;;26.96;21.35;95443.66;5061752;28;20475;-55
2022/04/14 08:44:10;;;;;;;13.63;7.10;;;26.90;28.50;;;26.94;23.14;95440.38;5055900;28;20829;-58
2022/04/14 08:46:37;;;;;;;24.43;7.00;;;26.80;29.40;;;26.98;23.66;95440.72;5052692;28;20479;-56
2022/04/14 08:49:04;;;;;;;6.60;5.60;;;26.70;30.00;;;27.07;23.39;95438.53;5058150;28;20907;-56
2022/04/14 08:51:35;;;;;;;7.53;6.10;;;26.80;29.90;;;27.19;22.91;95429.41;5061202;28;20486;-57
2022/04/14 08:54:05;;;;;;;8.33;6.30;;;26.80;29.40;;;27.06;22.74;95429.59;5058692;28;20450;-55
2022/04/14 08:56:32;;;;;;;9.77;5.50;;;26.80;29.00;;;26.86;23.08;95424.47;5061432;28;20471;-55
2022/04/14 08:59:00;;;;;;;13.83;5.07;;;26.60;29.30;;;26.80;23.02;95426.22;5055374;28;20526;-57
2022/04/14 09:01:27;;;;;;;7.73;4.80;;;26.40;29.40;;;26.90;21.45;95419.44;5062172;28;20498;-56
2022/04/14 09:03:56;;;;;;;8.90;5.43;;;26.40;28.30;;;27.02;22.99;95417.63;5051874;28;20455;-56
2022/04/14 09:06:24;;;;;;;8.20;5.23;;;26.50;29.20;;;27.11;22.34;95416.25;5055173;28;20478;-56
2022/04/14 09:08:51;;;;;;;11.10;4.30;;;26.60;28.80;;;27.16;22.47;95416.38;5053493;28;20501;-54
2022/04/14 09:11:20;;;;;;;12.40;5.17;;;26.70;28.90;;;27.27;21.97;95411.22;5059691;28;20479;-55
2022/04/14 09:13:47;;;;;;;5.63;4.10;;;26.80;27.80;;;27.38;21.44;95404.25;5056249;28;20459;-56
2022/04/14 09:16:15;;;;;;;5.77;4.40;;;26.80;28.10;;;27.44;22.15;95400.59;5062358;28;20491;-56
2022/04/14 09:18:42;;;;;;;6.60;4.40;;;26.90;28.40;;;27.41;22.03;95396.47;5057705;28;20452;-57
2022/04/14 09:21:09;;;;;;;11.33;4.70;;;27.00;28.30;;;27.43;21.79;95402.47;5062390;28;20950;-56
2022/04/14 09:23:36;;;;;;;4.90;4.50;;;27.00;27.90;;;27.46;21.35;95402.00;5051487;28;20459;-58
2022/04/14 09:26:12;;;;;;;6.20;4.17;;;26.90;27.50;;;27.46;21.27;95402.00;5057935;28;21070;-56
2022/04/14 09:28:42;;;;;;;5.00;4.27;;;27.00;27.80;;;27.50;21.63;95392.38;5059195;28;20715;-55
2022/04/14 09:31:11;;;;;;;10.50;4.07;;;27.00;27.90;;;27.34;22.08;95393.06;5050611;28;20470;-56
2022/04/14 09:33:45;;;;;;;5.43;3.90;;;27.00;27.60;;;27.22;21.67;95389.47;5060091;28;20507;-57
2022/04/14 09:36:15;;;;;;;10.60;4.00;;;26.70;27.80;;;27.31;21.78;95390.78;5053941;28;20574;-58
2022/04/14 09:38:50;;;;;;;11.03;4.30;;;26.70;27.80;;;27.42;21.30;95383.78;5055459;28;20603;-55
2022/04/14 09:41:32;;;;;;;3.33;3.10;;;26.80;27.60;;;27.50;21.10;95381.56;5049123;28;20521;-55
2022/04/14 09:44:02;;;;;;;4.67;4.20;;;27.00;27.50;;;27.50;21.22;95386.97;5050507;28;20987;-56
2022/04/14 09:46:29;;;;;;;4.47;4.07;;;27.00;27.00;;;27.24;20.54;95381.97;5059183;28;20986;-55
2022/04/14 09:49:07;;;;;;;6.00;3.50;;;26.80;26.60;;;26.91;21.46;95383.28;5053906;28;20494;-55
2022/04/14 09:51:36;;;;;;;14.50;4.40;;;26.50;27.40;;;26.92;21.47;95377.66;5059218;28;20550;-56
2022/04/14 09:54:11;;;;;;;6.70;4.13;;;26.40;27.70;;;27.04;21.32;95374.19;5056853;28;20966;-55
2022/04/14 09:56:47;;;;;;;7.43;3.80;;;26.50;27.50;;;27.09;20.97;95369.72;5056582;28;20462;-56
2022/04/14 09:59:17;;;;;;;13.30;4.93;;;26.50;27.40;;;27.14;21.42;95367.16;5055575;28;20478;-56
2022/04/14 10:01:44;;;;;;;7.73;3.43;;;26.60;27.70;;;27.25;20.94;95359.31;5050867;28;20502;-56
2022/04/14 10:04:30;;;;;;;5.57;3.43;;;26.70;27.00;;;27.04;20.24;95358.81;5052182;28;20450;-56
2022/04/14 10:07:09;;;;;;;3.83;3.20;;;26.60;26.50;;;26.84;20.66;95357.22;5057965;28;20530;-56
2022/04/14 10:09:38;;;;;;;7.90;3.97;;;26.40;26.70;;;26.59;20.48;95359.22;5056428;28;20984;-55
2022/04/14 10:12:27;;;;;;;8.50;3.97;;;26.20;26.30;;;26.38;20.16;95342.44;5058397;28;20463;-56
2022/04/14 10:15:05;;;;;;;7.17;4.10;;;26.10;26.80;;;26.19;20.65;95351.63;5059093;28;20590;-56
2022/04/14 10:17:35;;;;;;;9.17;4.03;;;25.90;27.10;;;25.92;21.05;95354.59;5056381;28;20983;-55
2022/04/14 10:20:04;;;;;;;4.63;4.23;;;25.60;26.90;;;25.70;21.67;95348.81;5054981;28;20550;-55
2022/04/14 10:22:32;;;;;;;4.40;4.00;;;25.40;27.40;;;25.68;21.36;95350.91;5051421;28;20976;-54
2022/04/14 10:24:59;;;;;;;10.40;4.03;;;25.20;27.40;;;25.81;21.70;95347.25;5053497;28;20463;-55
2022/04/14 10:27:26;;;;;;;10.83;6.00;;;25.30;27.40;;;25.95;21.13;95354.16;5058920;28;20478;-56